sensor_id;sensor_type;location;lat;lon;timestamp;P1;durP1;ratioP1;P2;durP2;ratioP2
41141;SDS011;63666;52.284;20.890;2024-03-23T00:54:26;7.10;;;5.40;;
41141;SDS011;63666;52.284;20.890;2024-03-23T00:56:15;6.70;;;4.90;;
41141;SDS011;63666;52.284;20.890;2024-03-23T00:57:59;7.00;;;5.50;;
41141;SDS011;63666;52.284;20.890;2024-03-23T00:59:47;6.70;;;5.10;;
41141;SDS011;63666;52.284;20.890;2024-03-23T01:01:32;7.00;;;5.60;;
41141;SDS011;63666;52.284;20.890;2024-03-23T01:03:18;6.80;;;5.20;;
41141;SDS011;63666;52.284;20.890;2024-03-23T01:05:05;7.00;;;5.20;;
41141;SDS011;63666;52.284;20.890;2024-03-23T01:06:52;7.30;;;5.30;;
41141;SDS011;63666;52.284;20.890;2024-03-23T01:08:37;7.30;;;5.60;;
41141;SDS011;63666;52.284;20.890;2024-03-23T01:10:27;6.60;;;5.20;;
41141;SDS011;63666;52.284;20.890;2024-03-23T01:12:12;7.10;;;5.40;;
41141;SDS011;63666;52.284;20.890;2024-03-23T01:13:57;6.70;;;5.20;;
41141;SDS011;63666;52.284;20.890;2024-03-23T01:15:49;7.30;;;5.30;;
41141;SDS011;63666;52.284;20.890;2024-03-23T01:19:17;7.10;;;5.20;;
41141;SDS011;63666;52.284;20.890;2024-03-23T01:21:02;7.40;;;5.60;;
41141;SDS011;63666;52.284;20.890;2024-03-23T01:22:52;6.80;;;5.30;;
41141;SDS011;63666;52.284;20.890;2024-03-23T01:24:41;7.40;;;5.50;;
41141;SDS011;63666;52.284;20.890;2024-03-23T01:26:28;7.70;;;5.30;;
41141;SDS011;63666;52.284;20.890;2024-03-23T01:28:16;7.10;;;5.20;;
41141;SDS011;63666;52.284;20.890;2024-03-23T01:30:05;8.20;;;5.40;;
41141;SDS011;63666;52.284;20.890;2024-03-23T01:31:51;7.50;;;5.30;;
41141;SDS011;63666;52.284;20.890;2024-03-23T01:33:38;7.00;;;5.70;;
41141;SDS011;63666;52.284;20.890;2024-03-23T01:35:25;7.10;;;5.40;;
41141;SDS011;63666;52.284;20.890;2024-03-23T01:37:13;7.20;;;5.50;;
41141;SDS011;63666;52.284;20.890;2024-03-23T01:39:03;6.80;;;5.30;;
41141;SDS011;63666;52.284;20.890;2024-03-23T01:42:37;7.40;;;5.40;;
41141;SDS011;63666;52.284;20.890;2024-03-23T01:44:24;7.20;;;5.30;;
41141;SDS011;63666;52.284;20.890;2024-03-23T01:46:11;6.70;;;5.40;;
41141;SDS011;63666;52.284;20.890;2024-03-23T01:47:56;7.00;;;5.40;;
41141;SDS011;63666;52.284;20.890;2024-03-23T01:49:41;7.30;;;5.50;;
41141;SDS011;63666;52.284;20.890;2024-03-23T01:51:28;7.10;;;5.30;;
41141;SDS011;63666;52.284;20.890;2024-03-23T01:53:13;7.00;;;5.30;;
41141;SDS011;63666;52.284;20.890;2024-03-23T01:55:01;7.10;;;5.50;;
41141;SDS011;63666;52.284;20.890;2024-03-23T01:56:45;7.10;;;5.50;;
41141;SDS011;63666;52.284;20.890;2024-03-23T01:58:31;7.00;;;5.50;;
41141;SDS011;63666;52.284;20.890;2024-03-23T02:00:17;7.20;;;5.40;;
41141;SDS011;63666;52.284;20.890;2024-03-23T02:02:05;7.70;;;5.60;;
41141;SDS011;63666;52.284;20.890;2024-03-23T02:03:50;7.10;;;5.30;;
41141;SDS011;63666;52.284;20.890;2024-03-23T02:05:36;6.90;;;5.40;;
41141;SDS011;63666;52.284;20.890;2024-03-23T02:07:23;7.50;;;5.80;;
41141;SDS011;63666;52.284;20.890;2024-03-23T02:09:13;8.20;;;6.00;;
41141;SDS011;63666;52.284;20.890;2024-03-23T02:11:01;7.70;;;5.60;;
41141;SDS011;63666;52.284;20.890;2024-03-23T02:12:46;7.30;;;5.40;;
41141;SDS011;63666;52.284;20.890;2024-03-23T02:14:30;8.50;;;5.90;;
41141;SDS011;63666;52.284;20.890;2024-03-23T02:16:15;7.20;;;5.50;;
41141;SDS011;63666;52.284;20.890;2024-03-23T02:18:01;7.80;;;5.80;;
41141;SDS011;63666;52.284;20.890;2024-03-23T02:19:48;7.20;;;5.60;;
41141;SDS011;63666;52.284;20.890;2024-03-23T02:21:38;7.10;;;5.40;;
41141;SDS011;63666;52.284;20.890;2024-03-23T02:23:22;6.80;;;5.50;;
41141;SDS011;63666;52.284;20.890;2024-03-23T02:25:08;7.10;;;5.30;;
41141;SDS011;63666;52.284;20.890;2024-03-23T02:26:52;7.40;;;5.60;;
41141;SDS011;63666;52.284;20.890;2024-03-23T02:28:36;7.70;;;5.60;;
41141;SDS011;63666;52.284;20.890;2024-03-23T02:30:23;7.20;;;5.50;;
41141;SDS011;63666;52.284;20.890;2024-03-23T02:32:14;7.00;;;5.70;;
41141;SDS011;63666;52.284;20.890;2024-03-23T02:33:58;6.90;;;5.40;;
41141;SDS011;63666;52.284;20.890;2024-03-23T02:35:42;7.10;;;5.70;;
41141;SDS011;63666;52.284;20.890;2024-03-23T02:37:31;6.90;;;5.40;;
41141;SDS011;63666;52.284;20.890;2024-03-23T02:39:19;7.00;;;5.50;;
41141;SDS011;63666;52.284;20.890;2024-03-23T02:41:05;7.40;;;5.60;;
41141;SDS011;63666;52.284;20.890;2024-03-23T02:42:53;7.30;;;5.60;;
41141;SDS011;63666;52.284;20.890;2024-03-23T02:44:38;6.90;;;5.50;;
41141;SDS011;63666;52.284;20.890;2024-03-23T02:46:23;7.10;;;5.10;;
41141;SDS011;63666;52.284;20.890;2024-03-23T02:48:09;7.10;;;5.30;;
41141;SDS011;63666;52.284;20.890;2024-03-23T02:49:54;7.10;;;5.20;;
41141;SDS011;63666;52.284;20.890;2024-03-23T02:51:39;6.80;;;5.30;;
41141;SDS011;63666;52.284;20.890;2024-03-23T02:53:29;7.10;;;5.50;;
41141;SDS011;63666;52.284;20.890;2024-03-23T02:55:16;6.80;;;5.60;;
41141;SDS011;63666;52.284;20.890;2024-03-23T02:57:01;7.80;;;5.60;;
41141;SDS011;63666;52.284;20.890;2024-03-23T02:58:46;7.60;;;5.70;;
41141;SDS011;63666;52.284;20.890;2024-03-23T03:00:31;7.20;;;5.60;;
41141;SDS011;63666;52.284;20.890;2024-03-23T03:02:17;8.00;;;5.60;;
41141;SDS011;63666;52.284;20.890;2024-03-23T03:04:03;8.10;;;5.40;;
41141;SDS011;63666;52.284;20.890;2024-03-23T03:05:56;6.80;;;5.40;;
41141;SDS011;63666;52.284;20.890;2024-03-23T03:07:40;7.30;;;5.30;;
41141;SDS011;63666;52.284;20.890;2024-03-23T03:09:25;7.10;;;5.20;;
41141;SDS011;63666;52.284;20.890;2024-03-23T03:11:12;7.00;;;5.50;;
41141;SDS011;63666;52.284;20.890;2024-03-23T03:13:02;8.10;;;5.80;;
41141;SDS011;63666;52.284;20.890;2024-03-23T03:14:52;7.40;;;5.40;;
41141;SDS011;63666;52.284;20.890;2024-03-23T03:16:39;7.10;;;5.60;;
41141;SDS011;63666;52.284;20.890;2024-03-23T03:18:27;7.40;;;5.60;;
41141;SDS011;63666;52.284;20.890;2024-03-23T03:20:12;7.10;;;5.50;;
41141;SDS011;63666;52.284;20.890;2024-03-23T03:22:01;7.60;;;5.50;;
41141;SDS011;63666;52.284;20.890;2024-03-23T03:23:50;7.70;;;5.70;;
41141;SDS011;63666;52.284;20.890;2024-03-23T03:25:37;7.50;;;5.50;;
41141;SDS011;63666;52.284;20.890;2024-03-23T03:27:22;7.40;;;5.50;;
41141;SDS011;63666;52.284;20.890;2024-03-23T03:29:09;7.50;;;5.50;;
41141;SDS011;63666;52.284;20.890;2024-03-23T03:30:54;7.20;;;5.40;;
41141;SDS011;63666;52.284;20.890;2024-03-23T03:32:39;7.50;;;5.60;;
41141;SDS011;63666;52.284;20.890;2024-03-23T03:34:23;7.50;;;5.60;;
41141;SDS011;63666;52.284;20.890;2024-03-23T03:36:08;7.80;;;5.60;;
41141;SDS011;63666;52.284;20.890;2024-03-23T03:37:52;7.90;;;5.70;;
41141;SDS011;63666;52.284;20.890;2024-03-23T03:39:40;7.70;;;5.70;;
41141;SDS011;63666;52.284;20.890;2024-03-23T03:41:24;7.10;;;5.40;;
41141;SDS011;63666;52.284;20.890;2024-03-23T03:43:11;7.70;;;5.60;;
41141;SDS011;63666;52.284;20.890;2024-03-23T03:44:59;7.60;;;5.50;;
41141;SDS011;63666;52.284;20.890;2024-03-23T03:46:46;7.50;;;5.50;;
41141;SDS011;63666;52.284;20.890;2024-03-23T03:48:36;7.60;;;5.30;;
41141;SDS011;63666;52.284;20.890;2024-03-23T03:50:24;7.90;;;5.60;;
41141;SDS011;63666;52.284;20.890;2024-03-23T03:52:15;7.00;;;5.50;;
41141;SDS011;63666;52.284;20.890;2024-03-23T03:54:01;7.30;;;5.40;;
41141;SDS011;63666;52.284;20.890;2024-03-23T03:55:46;7.40;;;5.30;;
41141;SDS011;63666;52.284;20.890;2024-03-23T03:57:31;7.90;;;5.60;;
41141;SDS011;63666;52.284;20.890;2024-03-23T03:59:16;7.00;;;5.20;;
41141;SDS011;63666;52.284;20.890;2024-03-23T04:01:02;8.00;;;5.30;;
41141;SDS011;63666;52.284;20.890;2024-03-23T04:02:48;7.10;;;5.30;;
41141;SDS011;63666;52.284;20.890;2024-03-23T04:04:32;7.20;;;5.60;;
41141;SDS011;63666;52.284;20.890;2024-03-23T04:06:21;7.30;;;5.50;;
41141;SDS011;63666;52.284;20.890;2024-03-23T04:08:07;7.20;;;5.10;;
41141;SDS011;63666;52.284;20.890;2024-03-23T04:09:52;7.10;;;5.20;;
41141;SDS011;63666;52.284;20.890;2024-03-23T04:11:36;6.40;;;5.20;;
41141;SDS011;63666;52.284;20.890;2024-03-23T04:13:22;6.80;;;5.20;;
41141;SDS011;63666;52.284;20.890;2024-03-23T04:15:09;8.20;;;5.50;;
41141;SDS011;63666;52.284;20.890;2024-03-23T04:16:53;8.20;;;5.60;;
41141;SDS011;63666;52.284;20.890;2024-03-23T04:18:40;8.30;;;5.50;;
41141;SDS011;63666;52.284;20.890;2024-03-23T04:20:26;7.30;;;5.40;;
41141;SDS011;63666;52.284;20.890;2024-03-23T04:22:14;7.10;;;5.10;;
41141;SDS011;63666;52.284;20.890;2024-03-23T04:23:59;6.50;;;4.90;;
41141;SDS011;63666;52.284;20.890;2024-03-23T04:25:49;6.60;;;5.10;;
41141;SDS011;63666;52.284;20.890;2024-03-23T04:27:37;7.10;;;5.40;;
41141;SDS011;63666;52.284;20.890;2024-03-23T04:29:22;7.30;;;5.60;;
41141;SDS011;63666;52.284;20.890;2024-03-23T04:31:08;7.20;;;5.00;;
41141;SDS011;63666;52.284;20.890;2024-03-23T04:32:53;7.10;;;5.40;;
41141;SDS011;63666;52.284;20.890;2024-03-23T04:34:38;7.20;;;5.20;;
41141;SDS011;63666;52.284;20.890;2024-03-23T04:36:22;7.00;;;5.10;;
41141;SDS011;63666;52.284;20.890;2024-03-23T04:38:09;7.40;;;5.00;;
41141;SDS011;63666;52.284;20.890;2024-03-23T04:39:53;7.10;;;5.10;;
41141;SDS011;63666;52.284;20.890;2024-03-23T04:41:38;6.40;;;5.00;;
41141;SDS011;63666;52.284;20.890;2024-03-23T04:43:25;6.70;;;5.00;;
41141;SDS011;63666;52.284;20.890;2024-03-23T04:45:10;7.60;;;5.20;;
41141;SDS011;63666;52.284;20.890;2024-03-23T04:46:55;7.10;;;5.20;;
41141;SDS011;63666;52.284;20.890;2024-03-23T04:48:39;6.50;;;4.80;;
41141;SDS011;63666;52.284;20.890;2024-03-23T04:50:25;7.20;;;4.90;;
41141;SDS011;63666;52.284;20.890;2024-03-23T04:52:12;7.10;;;5.00;;
41141;SDS011;63666;52.284;20.890;2024-03-23T04:53:57;6.70;;;5.10;;
41141;SDS011;63666;52.284;20.890;2024-03-23T04:55:41;7.50;;;5.00;;
41141;SDS011;63666;52.284;20.890;2024-03-23T04:57:26;6.90;;;4.90;;
41141;SDS011;63666;52.284;20.890;2024-03-23T04:59:11;6.90;;;5.10;;
41141;SDS011;63666;52.284;20.890;2024-03-23T05:00:58;6.60;;;4.90;;
41141;SDS011;63666;52.284;20.890;2024-03-23T05:02:43;7.00;;;4.80;;
41141;SDS011;63666;52.284;20.890;2024-03-23T05:04:31;7.80;;;5.10;;
41141;SDS011;63666;52.284;20.890;2024-03-23T05:06:18;6.90;;;5.00;;
41141;SDS011;63666;52.284;20.890;2024-03-23T05:08:05;6.80;;;4.80;;
41141;SDS011;63666;52.284;20.890;2024-03-23T05:09:50;6.40;;;4.60;;
41141;SDS011;63666;52.284;20.890;2024-03-23T05:11:38;6.40;;;4.50;;
41141;SDS011;63666;52.284;20.890;2024-03-23T05:13:23;6.30;;;4.60;;
41141;SDS011;63666;52.284;20.890;2024-03-23T05:15:09;6.00;;;4.30;;
41141;SDS011;63666;52.284;20.890;2024-03-23T05:16:54;6.40;;;4.30;;
41141;SDS011;63666;52.284;20.890;2024-03-23T05:18:38;6.30;;;4.40;;
41141;SDS011;63666;52.284;20.890;2024-03-23T05:20:26;6.80;;;4.50;;
41141;SDS011;63666;52.284;20.890;2024-03-23T05:22:10;6.50;;;4.40;;
41141;SDS011;63666;52.284;20.890;2024-03-23T05:23:56;6.60;;;4.50;;
41141;SDS011;63666;52.284;20.890;2024-03-23T05:25:40;6.60;;;4.60;;
41141;SDS011;63666;52.284;20.890;2024-03-23T05:27:27;6.00;;;4.10;;
41141;SDS011;63666;52.284;20.890;2024-03-23T05:29:15;7.00;;;4.70;;
41141;SDS011;63666;52.284;20.890;2024-03-23T05:31:03;6.40;;;4.10;;
41141;SDS011;63666;52.284;20.890;2024-03-23T05:32:47;6.10;;;4.20;;
41141;SDS011;63666;52.284;20.890;2024-03-23T05:34:36;6.50;;;4.50;;
41141;SDS011;63666;52.284;20.890;2024-03-23T05:36:22;6.00;;;4.50;;
41141;SDS011;63666;52.284;20.890;2024-03-23T05:38:07;5.60;;;4.20;;
41141;SDS011;63666;52.284;20.890;2024-03-23T05:39:50;6.90;;;4.70;;
41141;SDS011;63666;52.284;20.890;2024-03-23T05:41:40;6.10;;;4.40;;
41141;SDS011;63666;52.284;20.890;2024-03-23T05:43:28;6.30;;;4.20;;
41141;SDS011;63666;52.284;20.890;2024-03-23T05:45:13;6.30;;;4.10;;
41141;SDS011;63666;52.284;20.890;2024-03-23T05:47:00;6.20;;;4.30;;
41141;SDS011;63666;52.284;20.890;2024-03-23T05:48:45;6.20;;;4.20;;
41141;SDS011;63666;52.284;20.890;2024-03-23T05:50:30;5.90;;;4.20;;
41141;SDS011;63666;52.284;20.890;2024-03-23T05:52:14;5.70;;;4.00;;
41141;SDS011;63666;52.284;20.890;2024-03-23T05:53:59;5.90;;;4.20;;
41141;SDS011;63666;52.284;20.890;2024-03-23T05:55:46;5.80;;;4.00;;
41141;SDS011;63666;52.284;20.890;2024-03-23T05:57:32;6.10;;;4.40;;
41141;SDS011;63666;52.284;20.890;2024-03-23T05:59:19;5.60;;;3.80;;
41141;SDS011;63666;52.284;20.890;2024-03-23T06:02:57;5.90;;;4.00;;
41141;SDS011;63666;52.284;20.890;2024-03-23T06:04:47;6.20;;;4.20;;
41141;SDS011;63666;52.284;20.890;2024-03-23T06:06:36;6.00;;;4.10;;
41141;SDS011;63666;52.284;20.890;2024-03-23T06:08:21;5.60;;;4.10;;
41141;SDS011;63666;52.284;20.890;2024-03-23T06:10:08;6.00;;;4.20;;
41141;SDS011;63666;52.284;20.890;2024-03-23T06:11:52;5.80;;;4.00;;
41141;SDS011;63666;52.284;20.890;2024-03-23T06:13:37;6.10;;;4.10;;
41141;SDS011;63666;52.284;20.890;2024-03-23T06:15:21;6.00;;;4.10;;
41141;SDS011;63666;52.284;20.890;2024-03-23T06:17:06;5.80;;;4.50;;
41141;SDS011;63666;52.284;20.890;2024-03-23T06:18:52;6.00;;;4.20;;
41141;SDS011;63666;52.284;20.890;2024-03-23T06:20:44;6.40;;;4.40;;
41141;SDS011;63666;52.284;20.890;2024-03-23T06:22:29;6.40;;;4.40;;
41141;SDS011;63666;52.284;20.890;2024-03-23T06:24:16;6.00;;;4.10;;
41141;SDS011;63666;52.284;20.890;2024-03-23T06:26:05;5.80;;;4.10;;
41141;SDS011;63666;52.284;20.890;2024-03-23T06:27:50;6.50;;;4.40;;
41141;SDS011;63666;52.284;20.890;2024-03-23T06:29:38;6.20;;;4.30;;
41141;SDS011;63666;52.284;20.890;2024-03-23T06:31:22;5.60;;;4.30;;
41141;SDS011;63666;52.284;20.890;2024-03-23T06:33:09;5.80;;;4.10;;
41141;SDS011;63666;52.284;20.890;2024-03-23T06:34:58;5.70;;;4.00;;
41141;SDS011;63666;52.284;20.890;2024-03-23T06:36:52;6.80;;;4.20;;
41141;SDS011;63666;52.284;20.890;2024-03-23T06:38:37;6.00;;;4.00;;
41141;SDS011;63666;52.284;20.890;2024-03-23T06:40:25;6.00;;;4.20;;
41141;SDS011;63666;52.284;20.890;2024-03-23T06:42:12;6.00;;;4.40;;
41141;SDS011;63666;52.284;20.890;2024-03-23T06:43:57;6.50;;;4.40;;
41141;SDS011;63666;52.284;20.890;2024-03-23T06:45:41;5.70;;;4.10;;
41141;SDS011;63666;52.284;20.890;2024-03-23T06:47:31;6.30;;;4.10;;
41141;SDS011;63666;52.284;20.890;2024-03-23T06:49:16;5.80;;;4.10;;
41141;SDS011;63666;52.284;20.890;2024-03-23T06:51:05;5.90;;;4.20;;
41141;SDS011;63666;52.284;20.890;2024-03-23T06:52:50;6.10;;;4.30;;
41141;SDS011;63666;52.284;20.890;2024-03-23T06:54:35;5.50;;;4.30;;
41141;SDS011;63666;52.284;20.890;2024-03-23T06:56:22;5.70;;;4.00;;
41141;SDS011;63666;52.284;20.890;2024-03-23T06:58:07;5.80;;;4.20;;
41141;SDS011;63666;52.284;20.890;2024-03-23T06:59:53;6.50;;;4.50;;
41141;SDS011;63666;52.284;20.890;2024-03-23T07:01:39;6.20;;;4.20;;
41141;SDS011;63666;52.284;20.890;2024-03-23T07:03:24;5.80;;;4.10;;
41141;SDS011;63666;52.284;20.890;2024-03-23T07:05:09;5.70;;;4.10;;
41141;SDS011;63666;52.284;20.890;2024-03-23T07:06:53;6.00;;;4.20;;
41141;SDS011;63666;52.284;20.890;2024-03-23T07:08:40;6.00;;;4.00;;
41141;SDS011;63666;52.284;20.890;2024-03-23T07:10:25;6.30;;;4.20;;
41141;SDS011;63666;52.284;20.890;2024-03-23T07:12:12;5.40;;;4.10;;
41141;SDS011;63666;52.284;20.890;2024-03-23T07:14:04;5.50;;;4.10;;
41141;SDS011;63666;52.284;20.890;2024-03-23T07:15:53;5.90;;;4.40;;
41141;SDS011;63666;52.284;20.890;2024-03-23T07:17:47;5.60;;;4.10;;
41141;SDS011;63666;52.284;20.890;2024-03-23T07:19:32;6.30;;;4.20;;
41141;SDS011;63666;52.284;20.890;2024-03-23T07:21:16;5.60;;;4.30;;
41141;SDS011;63666;52.284;20.890;2024-03-23T07:23:05;6.00;;;4.40;;
41141;SDS011;63666;52.284;20.890;2024-03-23T07:24:53;5.60;;;4.20;;
41141;SDS011;63666;52.284;20.890;2024-03-23T07:26:38;6.00;;;4.20;;
41141;SDS011;63666;52.284;20.890;2024-03-23T07:28:25;5.40;;;3.90;;
41141;SDS011;63666;52.284;20.890;2024-03-23T07:30:16;5.40;;;4.00;;
41141;SDS011;63666;52.284;20.890;2024-03-23T07:32:05;5.50;;;4.10;;
41141;SDS011;63666;52.284;20.890;2024-03-23T07:33:49;5.80;;;3.90;;
41141;SDS011;63666;52.284;20.890;2024-03-23T07:35:34;5.60;;;3.90;;
41141;SDS011;63666;52.284;20.890;2024-03-23T07:37:18;5.40;;;3.90;;
41141;SDS011;63666;52.284;20.890;2024-03-23T07:39:04;5.90;;;4.00;;
41141;SDS011;63666;52.284;20.890;2024-03-23T07:40:55;5.90;;;4.00;;
41141;SDS011;63666;52.284;20.890;2024-03-23T07:42:46;6.30;;;3.80;;
41141;SDS011;63666;52.284;20.890;2024-03-23T07:44:31;5.90;;;3.90;;
41141;SDS011;63666;52.284;20.890;2024-03-23T07:46:16;5.90;;;4.00;;
41141;SDS011;63666;52.284;20.890;2024-03-23T07:48:01;5.70;;;4.00;;
41141;SDS011;63666;52.284;20.890;2024-03-23T07:49:47;5.70;;;4.00;;
41141;SDS011;63666;52.284;20.890;2024-03-23T07:51:32;6.50;;;4.30;;
41141;SDS011;63666;52.284;20.890;2024-03-23T07:53:17;5.30;;;3.80;;
41141;SDS011;63666;52.284;20.890;2024-03-23T07:55:02;5.70;;;4.00;;
41141;SDS011;63666;52.284;20.890;2024-03-23T07:56:47;5.30;;;3.80;;
41141;SDS011;63666;52.284;20.890;2024-03-23T07:58:32;5.70;;;3.80;;
41141;SDS011;63666;52.284;20.890;2024-03-23T08:00:19;5.30;;;4.00;;
41141;SDS011;63666;52.284;20.890;2024-03-23T08:02:04;6.10;;;3.90;;
41141;SDS011;63666;52.284;20.890;2024-03-23T08:03:51;5.40;;;3.80;;
41141;SDS011;63666;52.284;20.890;2024-03-23T08:05:38;5.60;;;3.90;;
41141;SDS011;63666;52.284;20.890;2024-03-23T08:07:22;6.00;;;4.10;;
41141;SDS011;63666;52.284;20.890;2024-03-23T08:09:08;5.50;;;3.90;;
41141;SDS011;63666;52.284;20.890;2024-03-23T08:10:53;5.90;;;4.20;;
41141;SDS011;63666;52.284;20.890;2024-03-23T08:12:38;6.50;;;4.00;;
41141;SDS011;63666;52.284;20.890;2024-03-23T08:14:23;5.80;;;4.10;;
41141;SDS011;63666;52.284;20.890;2024-03-23T08:16:11;5.60;;;3.70;;
41141;SDS011;63666;52.284;20.890;2024-03-23T08:17:56;6.20;;;4.00;;
41141;SDS011;63666;52.284;20.890;2024-03-23T08:19:44;5.50;;;3.50;;
41141;SDS011;63666;52.284;20.890;2024-03-23T08:21:29;6.00;;;3.90;;
41141;SDS011;63666;52.284;20.890;2024-03-23T08:23:14;5.50;;;3.60;;
41141;SDS011;63666;52.284;20.890;2024-03-23T08:25:01;6.00;;;3.80;;
41141;SDS011;63666;52.284;20.890;2024-03-23T08:26:46;5.10;;;3.60;;
41141;SDS011;63666;52.284;20.890;2024-03-23T08:28:33;5.20;;;3.70;;
41141;SDS011;63666;52.284;20.890;2024-03-23T08:30:23;5.40;;;3.90;;
41141;SDS011;63666;52.284;20.890;2024-03-23T08:32:08;5.70;;;3.70;;
41141;SDS011;63666;52.284;20.890;2024-03-23T08:33:53;6.20;;;3.90;;
41141;SDS011;63666;52.284;20.890;2024-03-23T08:35:38;5.50;;;3.70;;
41141;SDS011;63666;52.284;20.890;2024-03-23T08:37:23;5.80;;;3.90;;
41141;SDS011;63666;52.284;20.890;2024-03-23T08:39:07;5.90;;;4.00;;
41141;SDS011;63666;52.284;20.890;2024-03-23T08:41:06;5.50;;;3.70;;
41141;SDS011;63666;52.284;20.890;2024-03-23T08:42:51;5.70;;;3.50;;
41141;SDS011;63666;52.284;20.890;2024-03-23T08:44:35;5.80;;;3.80;;
41141;SDS011;63666;52.284;20.890;2024-03-23T08:46:20;5.90;;;3.80;;
41141;SDS011;63666;52.284;20.890;2024-03-23T08:48:06;5.50;;;3.70;;
41141;SDS011;63666;52.284;20.890;2024-03-23T08:49:51;5.60;;;3.90;;
41141;SDS011;63666;52.284;20.890;2024-03-23T08:51:39;5.90;;;3.90;;
41141;SDS011;63666;52.284;20.890;2024-03-23T08:53:24;5.50;;;4.00;;
41141;SDS011;63666;52.284;20.890;2024-03-23T08:55:10;6.40;;;3.80;;
41141;SDS011;63666;52.284;20.890;2024-03-23T08:56:55;5.80;;;3.90;;
41141;SDS011;63666;52.284;20.890;2024-03-23T08:58:42;6.70;;;4.00;;
41141;SDS011;63666;52.284;20.890;2024-03-23T09:00:27;6.10;;;4.20;;
41141;SDS011;63666;52.284;20.890;2024-03-23T09:02:13;7.00;;;4.40;;
41141;SDS011;63666;52.284;20.890;2024-03-23T09:03:57;6.40;;;4.40;;
41141;SDS011;63666;52.284;20.890;2024-03-23T09:05:48;7.00;;;4.40;;
41141;SDS011;63666;52.284;20.890;2024-03-23T09:07:33;6.50;;;4.40;;
41141;SDS011;63666;52.284;20.890;2024-03-23T09:09:21;6.60;;;4.10;;
41141;SDS011;63666;52.284;20.890;2024-03-23T09:11:09;6.50;;;4.10;;
41141;SDS011;63666;52.284;20.890;2024-03-23T09:12:57;6.00;;;4.10;;
41141;SDS011;63666;52.284;20.890;2024-03-23T09:14:46;6.70;;;4.80;;
41141;SDS011;63666;52.284;20.890;2024-03-23T09:16:39;6.30;;;4.30;;
41141;SDS011;63666;52.284;20.890;2024-03-23T09:18:34;6.30;;;4.10;;
41141;SDS011;63666;52.284;20.890;2024-03-23T09:20:18;5.80;;;4.10;;
41141;SDS011;63666;52.284;20.890;2024-03-23T09:22:03;6.50;;;3.90;;
41141;SDS011;63666;52.284;20.890;2024-03-23T09:23:47;6.10;;;4.40;;
41141;SDS011;63666;52.284;20.890;2024-03-23T09:25:32;7.10;;;4.70;;
41141;SDS011;63666;52.284;20.890;2024-03-23T09:27:23;6.30;;;4.40;;
41141;SDS011;63666;52.284;20.890;2024-03-23T09:29:07;6.70;;;4.60;;
41141;SDS011;63666;52.284;20.890;2024-03-23T09:30:52;9.30;;;5.40;;
41141;SDS011;63666;52.284;20.890;2024-03-23T09:32:36;10.10;;;6.00;;
41141;SDS011;63666;52.284;20.890;2024-03-23T09:34:21;9.70;;;5.80;;
41141;SDS011;63666;52.284;20.890;2024-03-23T09:36:09;8.90;;;5.60;;
41141;SDS011;63666;52.284;20.890;2024-03-23T09:37:54;6.80;;;4.10;;
41141;SDS011;63666;52.284;20.890;2024-03-23T09:39:41;7.20;;;4.70;;
41141;SDS011;63666;52.284;20.890;2024-03-23T09:41:31;8.50;;;5.20;;
41141;SDS011;63666;52.284;20.890;2024-03-23T09:43:18;7.70;;;4.70;;
41141;SDS011;63666;52.284;20.890;2024-03-23T09:45:05;7.10;;;4.70;;
41141;SDS011;63666;52.284;20.890;2024-03-23T09:46:52;6.80;;;4.60;;
41141;SDS011;63666;52.284;20.890;2024-03-23T09:48:43;7.30;;;4.90;;
41141;SDS011;63666;52.284;20.890;2024-03-23T09:50:30;8.60;;;5.60;;
41141;SDS011;63666;52.284;20.890;2024-03-23T09:52:17;8.40;;;5.20;;
41141;SDS011;63666;52.284;20.890;2024-03-23T09:54:02;9.00;;;5.40;;
41141;SDS011;63666;52.284;20.890;2024-03-23T09:55:47;8.20;;;5.00;;
41141;SDS011;63666;52.284;20.890;2024-03-23T09:57:34;7.00;;;4.80;;
41141;SDS011;63666;52.284;20.890;2024-03-23T09:59:19;7.60;;;4.90;;
41141;SDS011;63666;52.284;20.890;2024-03-23T10:01:05;7.50;;;4.60;;
41141;SDS011;63666;52.284;20.890;2024-03-23T10:02:49;7.30;;;4.80;;
41141;SDS011;63666;52.284;20.890;2024-03-23T10:04:40;7.70;;;4.70;;
41141;SDS011;63666;52.284;20.890;2024-03-23T10:06:28;7.80;;;4.60;;
41141;SDS011;63666;52.284;20.890;2024-03-23T10:08:20;8.10;;;4.80;;
41141;SDS011;63666;52.284;20.890;2024-03-23T10:10:14;7.50;;;4.90;;
41141;SDS011;63666;52.284;20.890;2024-03-23T10:12:09;7.20;;;4.40;;
41141;SDS011;63666;52.284;20.890;2024-03-23T10:13:58;7.10;;;4.60;;
41141;SDS011;63666;52.284;20.890;2024-03-23T10:15:55;6.80;;;4.30;;
41141;SDS011;63666;52.284;20.890;2024-03-23T10:17:40;7.30;;;4.40;;
41141;SDS011;63666;52.284;20.890;2024-03-23T10:19:33;7.10;;;4.70;;
41141;SDS011;63666;52.284;20.890;2024-03-23T10:21:18;6.70;;;4.30;;
41141;SDS011;63666;52.284;20.890;2024-03-23T10:23:02;6.30;;;4.10;;
41141;SDS011;63666;52.284;20.890;2024-03-23T10:24:53;6.60;;;4.20;;
41141;SDS011;63666;52.284;20.890;2024-03-23T10:26:57;7.40;;;4.50;;
41141;SDS011;63666;52.284;20.890;2024-03-23T10:28:52;6.40;;;4.20;;
41141;SDS011;63666;52.284;20.890;2024-03-23T10:30:38;6.40;;;4.20;;
41141;SDS011;63666;52.284;20.890;2024-03-23T10:32:23;7.00;;;4.30;;
41141;SDS011;63666;52.284;20.890;2024-03-23T10:34:08;7.30;;;4.70;;
41141;SDS011;63666;52.284;20.890;2024-03-23T10:35:57;7.40;;;4.50;;
41141;SDS011;63666;52.284;20.890;2024-03-23T10:37:46;7.10;;;4.10;;
41141;SDS011;63666;52.284;20.890;2024-03-23T10:39:33;7.10;;;4.40;;
41141;SDS011;63666;52.284;20.890;2024-03-23T10:41:19;6.40;;;4.20;;
41141;SDS011;63666;52.284;20.890;2024-03-23T10:43:07;7.20;;;4.30;;
41141;SDS011;63666;52.284;20.890;2024-03-23T10:44:56;7.30;;;4.20;;
41141;SDS011;63666;52.284;20.890;2024-03-23T10:46:43;6.10;;;4.10;;
41141;SDS011;63666;52.284;20.890;2024-03-23T10:48:28;6.70;;;4.30;;
41141;SDS011;63666;52.284;20.890;2024-03-23T10:50:20;5.50;;;4.10;;
41141;SDS011;63666;52.284;20.890;2024-03-23T10:52:07;6.80;;;4.10;;
41141;SDS011;63666;52.284;20.890;2024-03-23T10:53:56;6.40;;;4.10;;
41141;SDS011;63666;52.284;20.890;2024-03-23T10:55:42;6.40;;;4.20;;
41141;SDS011;63666;52.284;20.890;2024-03-23T10:57:31;6.90;;;3.90;;
41141;SDS011;63666;52.284;20.890;2024-03-23T10:59:20;5.80;;;4.00;;
41141;SDS011;63666;52.284;20.890;2024-03-23T11:01:08;6.60;;;4.20;;
41141;SDS011;63666;52.284;20.890;2024-03-23T11:02:55;5.70;;;3.90;;
41141;SDS011;63666;52.284;20.890;2024-03-23T11:04:41;7.60;;;4.40;;
41141;SDS011;63666;52.284;20.890;2024-03-23T11:06:36;6.60;;;4.50;;
41141;SDS011;63666;52.284;20.890;2024-03-23T11:08:33;6.00;;;4.00;;
41141;SDS011;63666;52.284;20.890;2024-03-23T11:10:28;6.40;;;4.00;;
41141;SDS011;63666;52.284;20.890;2024-03-23T11:12:29;7.00;;;4.20;;
41141;SDS011;63666;52.284;20.890;2024-03-23T11:14:23;6.30;;;3.80;;
41141;SDS011;63666;52.284;20.890;2024-03-23T11:16:16;5.70;;;3.90;;
41141;SDS011;63666;52.284;20.890;2024-03-23T11:18:08;5.60;;;3.70;;
41141;SDS011;63666;52.284;20.890;2024-03-23T11:19:58;5.70;;;3.60;;
41141;SDS011;63666;52.284;20.890;2024-03-23T11:21:55;6.50;;;4.50;;
41141;SDS011;63666;52.284;20.890;2024-03-23T11:23:41;5.50;;;3.60;;
41141;SDS011;63666;52.284;20.890;2024-03-23T11:25:26;6.00;;;3.80;;
41141;SDS011;63666;52.284;20.890;2024-03-23T11:27:20;6.00;;;3.90;;
41141;SDS011;63666;52.284;20.890;2024-03-23T11:29:12;6.10;;;3.80;;
41141;SDS011;63666;52.284;20.890;2024-03-23T11:30:58;6.10;;;3.80;;
41141;SDS011;63666;52.284;20.890;2024-03-23T11:32:43;5.90;;;3.50;;